Time;durP1;ratioP1;P1;durP2;ratioP2;P2;SDS_P1;SDS_P2;PMS_P1;PMS_P2;Temp;Humidity;BMP_temperature;BMP_pressure;BME280_temperature;BME280_humidity;BME280_pressure;Samples;Min_cycle;Max_cycle;Signal;HPM_P1;HPM_P2
2022/09/08 00:00:47;;;;;;;3.97;2.72;;;18.30;99.90;;;;;;5019138;28;20086;-74
2022/09/08 00:03:16;;;;;;;5.20;3.40;;;18.30;99.90;;;;;;5004767;28;20316;-74
2022/09/08 00:05:53;;;;;;;5.20;3.63;;;18.30;99.90;;;;;;5013447;28;20041;-75
2022/09/08 00:08:22;;;;;;;5.03;3.35;;;18.30;99.90;;;;;;5017139;28;20044;-74
2022/09/08 00:10:52;;;;;;;4.75;3.42;;;18.30;99.90;;;;;;5018729;28;20037;-75
2022/09/08 00:13:18;;;;;;;5.55;3.70;;;18.20;99.90;;;;;;5021346;28;20546;-74
2022/09/08 00:15:44;;;;;;;4.38;3.33;;;18.20;99.90;;;;;;5017861;28;20200;-75
2022/09/08 00:18:10;;;;;;;7.57;4.55;;;18.10;99.90;;;;;;5023289;28;20391;-74
2022/09/08 00:20:39;;;;;;;5.00;3.80;;;18.20;99.90;;;;;;5020605;28;20041;-74
2022/09/08 00:23:05;;;;;;;6.55;4.38;;;18.20;99.90;;;;;;5017572;28;20329;-75
2022/09/08 00:25:30;;;;;;;6.88;4.80;;;18.20;99.90;;;;;;5002599;28;20141;-75
2022/09/08 00:27:56;;;;;;;6.00;4.40;;;18.20;99.90;;;;;;5021064;28;20274;-74
2022/09/08 00:30:22;;;;;;;8.05;4.78;;;18.10;99.90;;;;;;5016707;28;20132;-74
2022/09/08 00:32:48;;;;;;;8.50;4.72;;;18.20;99.90;;;;;;5014953;28;21694;-74
2022/09/08 00:35:18;;;;;;;6.18;4.35;;;18.10;99.90;;;;;;5016454;28;20045;-74
2022/09/08 00:37:46;;;;;;;6.55;4.53;;;18.20;99.90;;;;;;5020139;28;20049;-74
2022/09/08 00:40:11;;;;;;;8.43;5.55;;;18.20;99.90;;;;;;5021348;28;20099;-74
2022/09/08 00:42:37;;;;;;;10.57;5.55;;;18.20;99.90;;;;;;5021583;28;20045;-74
2022/09/08 00:45:03;;;;;;;12.98;5.55;;;18.20;99.90;;;;;;5015831;28;20459;-74
2022/09/08 00:47:41;;;;;;;9.02;6.03;;;18.20;99.90;;;;;;5013957;28;20058;-74
2022/09/08 00:50:16;;;;;;;8.98;5.97;;;18.20;99.90;;;;;;5017550;28;20406;-74
2022/09/08 00:52:47;;;;;;;7.97;5.55;;;18.20;99.90;;;;;;5029766;28;20051;-74
2022/09/08 00:55:14;;;;;;;9.38;6.15;;;18.10;99.90;;;;;;5008666;28;20068;-74
2022/09/08 00:57:40;;;;;;;11.85;7.32;;;18.10;99.90;;;;;;5017298;28;20095;-74
2022/09/08 01:00:09;;;;;;;11.10;6.82;;;18.10;99.90;;;;;;5019192;28;20049;-74
2022/09/08 01:02:34;;;;;;;11.38;7.00;;;18.10;99.90;;;;;;5030129;28;20050;-74
2022/09/08 01:05:08;;;;;;;14.77;7.38;;;18.00;99.90;;;;;;5014911;28;20044;-74
2022/09/08 01:14:17;;;;;;;9.85;7.28;;;18.00;99.90;;;;;;5016760;28;20226;-74
2022/09/08 01:16:46;;;;;;;;;;;18.00;99.90;;;;;;5001505;28;20037;-74
2022/09/08 01:19:32;;;;;;;11.68;7.60;;;18.00;99.90;;;;;;5022099;28;20044;-74
2022/09/08 01:22:04;;;;;;;11.80;8.05;;;18.00;99.90;;;;;;5017835;28;20541;-74
2022/09/08 01:24:53;;;;;;;12.95;8.43;;;18.00;99.90;;;;;;5017237;28;20432;-74
2022/09/08 01:27:24;;;;;;;12.93;8.57;;;18.00;99.90;;;;;;5015290;28;20051;-74
2022/09/08 01:29:53;;;;;;;11.93;7.88;;;18.10;99.90;;;;;;5004837;28;20087;-74
2022/09/08 01:32:20;;;;;;;13.27;8.18;;;18.10;99.90;;;;;;5014954;28;20395;-74
2022/09/08 01:34:45;;;;;;;11.63;8.48;;;18.10;99.90;;;;;;5012579;28;20447;-74
2022/09/08 01:37:12;;;;;;;12.95;9.00;;;18.10;99.90;;;;;;5006048;28;20121;-74
2022/09/08 01:39:38;;;;;;;11.95;8.93;;;18.10;99.90;;;;;;5019030;28;20055;-78
2022/09/08 01:42:05;;;;;;;13.15;9.15;;;18.10;99.90;;;;;;5014397;28;20046;-73
2022/09/08 01:44:32;;;;;;;13.13;9.27;;;18.10;99.90;;;;;;5016321;28;20496;-74
2022/09/08 01:46:58;;;;;;;14.27;9.15;;;18.10;99.90;;;;;;5013748;28;20473;-74
2022/09/08 01:49:24;;;;;;;12.55;9.18;;;18.20;99.90;;;;;;5015152;28;20172;-74
2022/09/08 01:51:51;;;;;;;13.55;9.70;;;18.20;99.90;;;;;;5013292;28;20124;-74
2022/09/08 01:54:16;;;;;;;16.67;9.90;;;18.10;99.90;;;;;;5000659;28;20132;-74
2022/09/08 01:56:42;;;;;;;16.05;10.05;;;18.20;99.90;;;;;;5009388;28;20555;-74
2022/09/08 01:59:08;;;;;;;16.40;10.25;;;18.20;99.90;;;;;;5024974;28;20049;-74
2022/09/08 02:01:34;;;;;;;16.73;9.93;;;18.20;99.90;;;;;;5023810;28;20511;-74
2022/09/08 02:03:59;;;;;;;12.95;9.68;;;18.10;99.90;;;;;;5023931;28;20416;-74
2022/09/08 02:06:25;;;;;;;14.98;10.45;;;18.20;99.90;;;;;;5024444;28;20087;-74
2022/09/08 02:08:52;;;;;;;15.75;10.18;;;18.20;99.90;;;;;;5007363;28;20045;-74
2022/09/08 02:11:18;;;;;;;16.67;10.93;;;18.20;99.90;;;;;;5023800;28;20045;-74
2022/09/08 02:13:45;;;;;;;16.05;10.00;;;18.20;99.90;;;;;;5022451;28;20525;-74
2022/09/08 02:16:11;;;;;;;14.93;9.90;;;18.20;99.90;;;;;;5022441;28;20075;-74
2022/09/08 02:18:39;;;;;;;16.80;10.55;;;18.20;99.90;;;;;;5026214;28;20033;-74
2022/09/08 02:21:14;;;;;;;18.23;10.73;;;18.20;99.90;;;;;;5024711;28;20056;-74
2022/09/08 02:23:41;;;;;;;15.55;11.05;;;18.20;99.90;;;;;;5002597;28;20037;-74
2022/09/08 02:26:33;;;;;;;14.15;10.77;;;18.30;99.90;;;;;;5006864;28;20049;-74
2022/09/08 02:28:59;;;;;;;16.30;10.80;;;18.20;99.90;;;;;;5022784;28;20122;-74
2022/09/08 02:31:26;;;;;;;16.52;11.90;;;18.20;99.90;;;;;;5023434;28;20126;-74
2022/09/08 02:33:52;;;;;;;16.58;11.48;;;18.20;99.90;;;;;;5021773;28;20084;-74
2022/09/08 02:36:18;;;;;;;14.35;10.20;;;18.20;99.90;;;;;;5025799;28;20188;-74
2022/09/08 02:38:48;;;;;;;;;;;18.20;99.90;;;;;;5019674;28;20115;-74
2022/09/08 02:41:13;;;;;;;15.27;10.70;;;18.20;99.90;;;;;;5021067;28;19936;-74
2022/09/08 02:43:39;;;;;;;15.48;11.38;;;18.20;99.90;;;;;;5024080;28;20041;-74
2022/09/08 02:46:09;;;;;;;18.25;11.95;;;18.20;99.90;;;;;;5024430;28;20060;-74
2022/09/08 02:48:35;;;;;;;16.20;11.43;;;18.20;99.90;;;;;;5022928;28;20388;-74
2022/09/08 02:51:03;;;;;;;18.17;12.40;;;18.30;99.90;;;;;;5021804;28;20053;-74
2022/09/08 02:53:29;;;;;;;17.70;11.65;;;18.20;99.90;;;;;;5020477;28;20068;-74
2022/09/08 02:55:56;;;;;;;15.25;11.80;;;18.20;99.90;;;;;;5019510;28;20050;-74
2022/09/08 02:58:22;;;;;;;18.83;12.00;;;18.30;99.90;;;;;;5020263;28;20042;-74
2022/09/08 03:00:48;;;;;;;16.27;11.80;;;18.20;99.90;;;;;;5020353;28;20056;-74
2022/09/08 03:03:14;;;;;;;17.98;12.35;;;18.20;99.90;;;;;;5017006;28;20509;-74
2022/09/08 03:05:40;;;;;;;18.73;12.45;;;18.20;99.90;;;;;;5014189;28;20042;-75
2022/09/08 03:08:06;;;;;;;16.88;11.90;;;18.30;99.90;;;;;;5024450;28;20111;-74
2022/09/08 03:10:32;;;;;;;19.17;12.00;;;18.20;99.90;;;;;;5000092;28;20041;-74
2022/09/08 03:12:59;;;;;;;;;;;18.30;99.90;;;;;;5022565;28;20041;-74
2022/09/08 03:15:27;;;;;;;19.57;13.20;;;18.30;99.90;;;;;;5019958;28;19925;-74
2022/09/08 03:17:53;;;;;;;19.00;12.38;;;18.20;99.90;;;;;;5021116;28;20051;-74
2022/09/08 03:20:20;;;;;;;18.35;12.25;;;18.30;99.90;;;;;;5019663;28;20452;-74
2022/09/08 03:22:46;;;;;;;18.48;13.20;;;18.30;99.90;;;;;;5017065;28;20073;-74
2022/09/08 03:25:12;;;;;;;;;;;18.30;99.90;;;;;;5022619;28;20491;-74
2022/09/08 03:27:41;;;;;;;20.23;12.52;;;18.30;99.90;;;;;;5022050;28;19917;-74
2022/09/08 03:30:09;;;;;;;18.58;12.50;;;18.30;99.90;;;;;;5021861;28;20487;-74
2022/09/08 03:32:39;;;;;;;16.55;11.80;;;18.30;99.90;;;;;;5019657;28;20087;-74
2022/09/08 03:35:11;;;;;;;17.42;13.07;;;18.30;99.90;;;;;;5016310;28;20041;-74
2022/09/08 03:37:38;;;;;;;19.02;12.77;;;18.30;99.90;;;;;;5002759;28;20041;-74
2022/09/08 03:40:12;;;;;;;18.20;13.02;;;18.30;99.90;;;;;;5006091;28;20532;-74
2022/09/08 03:42:40;;;;;;;20.73;13.88;;;18.30;99.90;;;;;;5017618;28;20041;-74
2022/09/08 03:45:10;;;;;;;19.23;12.73;;;18.30;99.90;;;;;;5020899;28;20045;-74
2022/09/08 03:47:37;;;;;;;17.85;12.60;;;18.30;99.90;;;;;;5021736;28;20052;-74
2022/09/08 03:50:04;;;;;;;19.13;12.95;;;18.30;99.90;;;;;;5023999;28;20631;-74
2022/09/08 03:52:30;;;;;;;23.23;13.90;;;18.30;99.90;;;;;;5016726;28;20049;-74
2022/09/08 03:54:56;;;;;;;18.85;12.80;;;18.30;99.90;;;;;;5019094;28;20045;-74
2022/09/08 03:57:25;;;;;;;19.38;13.23;;;18.30;99.90;;;;;;5021760;28;20506;-74
2022/09/08 03:59:52;;;;;;;19.60;13.18;;;18.40;99.90;;;;;;5022514;28;20370;-74
2022/09/08 04:02:20;;;;;;;20.40;13.73;;;18.40;99.90;;;;;;5017760;28;20079;-74
2022/09/08 04:04:50;;;;;;;18.65;12.80;;;18.40;99.90;;;;;;5018317;28;20187;-74
2022/09/08 04:07:17;;;;;;;20.02;13.95;;;18.40;99.90;;;;;;5021661;28;20559;-74
2022/09/08 04:09:44;;;;;;;18.75;13.05;;;18.40;99.90;;;;;;5020707;28;20069;-74
2022/09/08 04:12:10;;;;;;;22.73;15.02;;;18.40;99.90;;;;;;5023983;28;20046;-74
2022/09/08 04:14:35;;;;;;;20.02;14.10;;;18.40;99.90;;;;;;5014484;28;20103;-74
2022/09/08 04:17:01;;;;;;;22.10;14.82;;;18.40;99.90;;;;;;5014662;28;20403;-74
2022/09/08 04:19:27;;;;;;;20.85;14.45;;;18.40;99.90;;;;;;5018897;28;20229;-74
2022/09/08 04:21:53;;;;;;;;;;;18.40;99.90;;;;;;5018097;28;20182;-74
2022/09/08 04:24:19;;;;;;;18.95;13.32;;;18.40;99.90;;;;;;5022067;28;20386;-74
2022/09/08 04:26:46;;;;;;;21.48;14.20;;;18.40;99.90;;;;;;5014698;28;20446;-74
2022/09/08 04:29:12;;;;;;;21.90;14.25;;;18.30;99.90;;;;;;5023027;28;20119;-74
2022/09/08 04:31:38;;;;;;;;;;;18.30;99.90;;;;;;5021229;28;20585;-74
2022/09/08 04:34:04;;;;;;;18.55;13.90;;;18.30;99.90;;;;;;5005231;28;20367;-74
2022/09/08 04:36:30;;;;;;;16.83;12.52;;;18.30;99.90;;;;;;5019685;28;20378;-74
2022/09/08 04:38:57;;;;;;;20.75;12.57;;;18.40;99.90;;;;;;5021778;28;20525;-74
2022/09/08 04:41:25;;;;;;;16.88;12.18;;;18.30;99.90;;;;;;5023761;28;20487;-74
2022/09/08 04:43:51;;;;;;;21.15;14.32;;;18.30;99.90;;;;;;5017140;28;20215;-75
2022/09/08 04:46:17;;;;;;;;;;;18.30;99.90;;;;;;5021730;28;20517;-74
2022/09/08 04:48:44;;;;;;;17.38;12.43;;;18.30;99.90;;;;;;5022287;28;19928;-74
2022/09/08 04:51:12;;;;;;;19.80;12.70;;;18.30;99.90;;;;;;5013664;28;20046;-74
2022/09/08 04:53:39;;;;;;;20.33;13.82;;;18.30;99.90;;;;;;5016282;28;20037;-74
2022/09/08 04:56:05;;;;;;;;;;;18.30;99.90;;;;;;5022408;28;20407;-74
2022/09/08 04:58:35;;;;;;;20.13;14.00;;;18.30;99.90;;;;;;5022908;28;19930;-74
2022/09/08 05:01:06;;;;;;;23.10;14.60;;;18.30;99.90;;;;;;5015792;28;20288;-74
2022/09/08 05:03:32;;;;;;;22.75;14.20;;;18.40;99.90;;;;;;5021977;28;20048;-74
2022/09/08 05:06:28;;;;;;;20.30;13.50;;;18.30;99.90;;;;;;5018811;28;20495;-74
2022/09/08 05:08:56;;;;;;;20.58;14.63;;;18.30;99.90;;;;;;5015607;28;20637;-74
2022/09/08 05:11:23;;;;;;;22.13;14.23;;;18.30;99.90;;;;;;5022264;28;20049;-74
2022/09/08 05:13:49;;;;;;;21.98;14.95;;;18.30;99.90;;;;;;5016614;28;20143;-74
2022/09/08 05:16:18;;;;;;;22.25;15.25;;;18.30;99.90;;;;;;5003304;28;20042;-74
2022/09/08 05:18:53;;;;;;;26.58;14.68;;;18.30;99.90;;;;;;5027792;28;20045;-74
2022/09/08 05:21:19;;;;;;;26.98;15.25;;;18.30;99.90;;;;;;5019960;28;20099;-74
2022/09/08 05:23:48;;;;;;;21.05;14.48;;;18.30;99.90;;;;;;5011144;28;20037;-74
2022/09/08 05:26:15;;;;;;;22.20;15.00;;;18.30;99.90;;;;;;5018205;28;20045;-74
2022/09/08 05:28:42;;;;;;;23.08;15.70;;;18.30;99.90;;;;;;5020496;28;20442;-74
2022/09/08 05:31:12;;;;;;;19.77;14.35;;;18.30;99.90;;;;;;5017520;28;20037;-74
2022/09/08 05:33:37;;;;;;;23.30;16.58;;;18.30;99.90;;;;;;5013584;28;20038;-74
2022/09/08 05:36:10;;;;;;;24.45;15.43;;;18.30;99.90;;;;;;5019633;28;20053;-74
2022/09/08 05:38:37;;;;;;;23.92;16.15;;;18.30;99.90;;;;;;4998478;28;20041;-74
2022/09/08 05:41:03;;;;;;;22.23;15.40;;;18.30;99.90;;;;;;5008178;28;20496;-74
2022/09/08 05:43:29;;;;;;;24.02;15.45;;;18.30;99.90;;;;;;5009151;28;20069;-74
2022/09/08 05:45:54;;;;;;;22.30;14.45;;;18.30;99.90;;;;;;4998944;28;20049;-75
2022/09/08 05:48:20;;;;;;;24.25;16.92;;;18.30;99.90;;;;;;5020444;28;20132;-74
2022/09/08 05:50:46;;;;;;;24.33;16.30;;;18.30;99.90;;;;;;5016383;28;20091;-76
2022/09/08 05:53:13;;;;;;;25.23;15.70;;;18.30;99.90;;;;;;5015385;28;20522;-72
2022/09/08 05:55:40;;;;;;;22.98;14.35;;;18.30;99.90;;;;;;5021333;28;20077;-73
2022/09/08 05:58:07;;;;;;;31.00;17.42;;;18.30;99.90;;;;;;5022393;28;20045;-74
2022/09/08 06:00:33;;;;;;;26.23;16.23;;;18.30;99.90;;;;;;5016871;28;20034;-71
2022/09/08 06:02:59;;;;;;;22.02;14.63;;;18.30;99.90;;;;;;5018090;28;20405;-72
2022/09/08 06:05:25;;;;;;;24.77;15.15;;;18.30;99.90;;;;;;5017618;28;20064;-75
2022/09/08 06:07:51;;;;;;;22.92;15.85;;;18.20;99.90;;;;;;5020985;28;20152;-72
2022/09/08 06:10:17;;;;;;;21.98;14.93;;;18.20;99.90;;;;;;5017428;28;20052;-72
2022/09/08 06:12:46;;;;;;;21.00;14.52;;;18.20;99.90;;;;;;5018426;28;20064;-71
2022/09/08 06:15:12;;;;;;;23.38;14.43;;;18.20;99.90;;;;;;5019925;28;20045;-71
2022/09/08 06:17:37;;;;;;;23.30;14.27;;;18.20;99.90;;;;;;5009747;28;20053;-71
2022/09/08 06:20:05;;;;;;;24.02;14.60;;;18.20;99.90;;;;;;5021318;28;20049;-71
2022/09/08 06:22:32;;;;;;;20.70;13.95;;;18.20;99.90;;;;;;5019732;28;20064;-70
2022/09/08 06:24:59;;;;;;;26.05;15.85;;;18.10;99.90;;;;;;5022504;28;20587;-72
2022/09/08 06:27:47;;;;;;;20.80;14.35;;;18.10;99.90;;;;;;5015420;28;20156;-72
2022/09/08 06:30:16;;;;;;;23.02;15.05;;;18.10;99.90;;;;;;5018191;28;20045;-72
2022/09/08 06:32:50;;;;;;;23.73;15.32;;;18.10;99.90;;;;;;5008540;28;20048;-71
2022/09/08 06:35:39;;;;;;;23.15;15.82;;;18.10;99.90;;;;;;5019808;28;20574;-71
2022/09/08 06:38:14;;;;;;;24.02;15.30;;;18.10;99.90;;;;;;5017070;28;20423;-70
2022/09/08 06:40:49;;;;;;;25.67;16.25;;;18.10;99.90;;;;;;5020189;28;20220;-73
2022/09/08 06:43:35;;;;;;;30.35;16.88;;;18.10;99.90;;;;;;5022782;28;20469;-73
2022/09/08 06:46:06;;;;;;;26.15;16.90;;;18.10;99.90;;;;;;5021172;28;20045;-70
2022/09/08 06:48:34;;;;;;;26.77;17.40;;;18.10;99.90;;;;;;5021753;28;20049;-72
2022/09/08 06:51:25;;;;;;;26.95;18.40;;;18.10;99.90;;;;;;5014057;28;20407;-74
2022/09/08 06:54:05;;;;;;;26.50;17.20;;;18.00;99.90;;;;;;5018316;28;20052;-69
2022/09/08 06:56:36;;;;;;;29.30;17.80;;;18.00;99.90;;;;;;5019935;28;20037;-74
2022/09/08 06:59:09;;;;;;;26.40;17.10;;;18.00;99.90;;;;;;5022147;28;20049;-70
2022/09/08 07:02:01;;;;;;;30.23;17.85;;;18.00;99.90;;;;;;5012230;28;20038;-70
2022/09/08 07:05:57;;;;;;;23.38;15.20;;;18.00;99.90;;;;;;5094709;27;20385;-70
2022/09/08 07:08:26;;;;;;;23.88;16.30;;;17.90;99.90;;;;;;5090775;28;20058;-69
2022/09/08 07:11:05;;;;;;;25.25;15.95;;;17.90;99.90;;;;;;5095553;28;20544;-69
2022/09/08 07:13:48;;;;;;;23.45;15.25;;;17.80;99.90;;;;;;5086720;28;20044;-70
2022/09/08 07:16:22;;;;;;;27.33;15.13;;;17.80;99.90;;;;;;5082790;28;20029;-71
2022/09/08 07:19:12;;;;;;;23.40;14.55;;;17.80;99.90;;;;;;5087175;28;20092;-71
2022/09/08 07:21:43;;;;;;;25.33;15.57;;;17.70;99.90;;;;;;5088164;28;20040;-71
2022/09/08 07:24:13;;;;;;;26.27;15.30;;;17.70;99.90;;;;;;5087754;28;20040;-71
2022/09/08 07:26:47;;;;;;;23.23;15.18;;;17.70;99.90;;;;;;5099184;28;20035;-71
2022/09/08 07:29:35;;;;;;;26.00;15.65;;;17.70;99.90;;;;;;5091320;28;20405;-71
2022/09/08 07:32:02;;;;;;;24.58;15.23;;;17.70;99.90;;;;;;5083051;28;20049;-71
2022/09/08 07:34:33;;;;;;;19.60;12.63;;;17.70;99.90;;;;;;5084633;28;20082;-71
2022/09/08 07:37:31;;;;;;;22.48;14.63;;;17.70;99.90;;;;;;5054218;22;20107;-74
2022/09/08 07:40:04;;;;;;;19.67;13.45;;;17.60;99.90;;;;;;5025320;28;20141;-74
2022/09/08 07:42:31;;;;;;;20.70;12.77;;;17.60;99.90;;;;;;5027344;28;20048;-74
2022/09/08 07:44:58;;;;;;;20.95;12.68;;;17.60;99.90;;;;;;5034856;28;20041;-75
2022/09/08 07:47:24;;;;;;;21.83;12.63;;;17.60;99.90;;;;;;5030657;28;20101;-75
2022/09/08 07:50:11;;;;;;;22.50;12.82;;;17.60;99.90;;;;;;5031883;28;20272;-74
2022/09/08 07:52:50;;;;;;;17.37;11.57;;;17.60;99.90;;;;;;5025123;28;20152;-75
2022/09/08 07:55:32;;;;;;;17.90;12.32;;;17.70;99.90;;;;;;5016045;28;20510;-74
2022/09/08 07:58:35;;;;;;;19.20;12.65;;;17.70;99.90;;;;;;5037142;28;20107;-74
2022/09/08 08:01:19;;;;;;;19.95;12.10;;;17.70;99.90;;;;;;5034632;28;20049;-75
2022/09/08 08:04:03;;;;;;;21.20;12.70;;;17.70;99.90;;;;;;5024540;28;20236;-75
2022/09/08 08:06:47;;;;;;;18.95;12.68;;;17.70;99.90;;;;;;5037100;28;20037;-75
2022/09/08 08:09:34;;;;;;;20.00;12.38;;;17.70;99.90;;;;;;5037142;28;20108;-75
2022/09/08 08:12:20;;;;;;;;;;;17.70;99.90;;;;;;5038250;28;20466;-74
2022/09/08 08:14:55;;;;;;;15.00;10.10;;;17.60;99.90;;;;;;5005788;28;20003;-74
2022/09/08 08:18:03;;;;;;;11.15;7.80;;;17.60;99.90;;;;;;5015166;28;20044;-74
2022/09/08 08:20:50;;;;;;;8.70;5.35;;;17.60;99.90;;;;;;5024610;28;20045;-74
2022/09/08 08:23:22;;;;;;;7.28;4.05;;;17.50;99.90;;;;;;5019575;28;20048;-74
2022/09/08 08:26:15;;;;;;;3.72;2.22;;;17.40;99.90;;;;;;5009784;28;20113;-74
2022/09/08 08:28:45;;;;;;;1.75;1.20;;;17.40;99.90;;;;;;5021780;28;20076;-74
2022/09/08 08:31:39;;;;;;;1.55;0.60;;;17.30;99.90;;;;;;5019045;28;20044;-74
2022/09/08 08:34:24;;;;;;;2.78;0.80;;;17.20;99.90;;;;;;5018903;28;20053;-74
2022/09/08 08:36:55;;;;;;;2.47;0.75;;;17.10;99.90;;;;;;5027397;28;20036;-74
2022/09/08 08:39:22;;;;;;;1.90;1.10;;;17.00;99.90;;;;;;5027997;28;20049;-74
2022/09/08 08:42:39;;;;;;;2.78;0.60;;;17.00;99.90;;;;;;5021385;28;22879;-74
2022/09/08 08:45:32;;;;;;;2.25;0.85;;;16.90;99.90;;;;;;4985677;28;20053;-74
2022/09/08 08:48:11;;;;;;;2.67;1.02;;;16.80;99.90;;;;;;5028172;28;20151;-74
2022/09/08 08:51:09;;;;;;;1.63;0.90;;;16.80;99.90;;;;;;5013608;28;20537;-74
2022/09/08 08:53:44;;;;;;;;;;;16.70;99.90;;;;;;5024167;28;20053;-74
2022/09/08 08:56:12;;;;;;;1.88;1.00;;;16.60;99.90;;;;;;5015839;28;19952;-74
2022/09/08 08:58:59;;;;;;;2.75;0.63;;;16.60;99.90;;;;;;5017084;28;20185;-74
2022/09/08 09:01:24;;;;;;;1.48;0.85;;;16.60;99.90;;;;;;5019610;28;20570;-74
2022/09/08 09:04:02;;;;;;;2.72;0.85;;;16.50;99.90;;;;;;5011889;28;20152;-74
2022/09/08 09:06:45;;;;;;;2.28;0.68;;;16.50;99.90;;;;;;5015401;28;20038;-74
2022/09/08 09:09:29;;;;;;;1.20;0.60;;;16.50;99.90;;;;;;5018807;28;20495;-74
2022/09/08 09:12:03;;;;;;;0.85;0.40;;;16.50;99.90;;;;;;5015975;28;20045;-74
2022/09/08 09:14:47;;;;;;;2.40;0.75;;;16.60;99.90;;;;;;5020368;28;20048;-73
2022/09/08 09:17:31;;;;;;;2.45;0.70;;;16.60;99.90;;;;;;5021719;28;20049;-74
2022/09/08 09:20:16;;;;;;;1.67;0.70;;;16.60;99.90;;;;;;5023569;28;20047;-74
2022/09/08 09:23:01;;;;;;;1.73;0.80;;;16.60;99.90;;;;;;5036723;28;20180;-74
2022/09/08 09:26:00;;;;;;;3.08;1.08;;;16.60;99.90;;;;;;5024517;28;20113;-74
2022/09/08 09:28:44;;;;;;;1.83;0.68;;;16.60;99.90;;;;;;5019731;28;20192;-73
2022/09/08 09:31:41;;;;;;;1.35;0.70;;;16.60;99.90;;;;;;5022219;28;20069;-74
2022/09/08 09:34:21;;;;;;;1.83;1.15;;;16.60;99.90;;;;;;5019602;28;20041;-74
2022/09/08 09:37:06;;;;;;;2.15;0.80;;;16.60;99.90;;;;;;5016604;28;20183;-74
2022/09/08 09:39:46;;;;;;;2.78;1.13;;;16.50;99.90;;;;;;5015226;28;20053;-74
2022/09/08 09:42:24;;;;;;;1.90;0.93;;;16.50;99.90;;;;;;5014267;28;20439;-74
2022/09/08 09:45:08;;;;;;;2.03;1.05;;;16.50;99.90;;;;;;4998214;28;20121;-73
2022/09/08 09:47:47;;;;;;;2.70;1.00;;;16.50;99.90;;;;;;5021405;28;20744;-73
2022/09/08 09:50:30;;;;;;;2.08;1.00;;;16.50;99.90;;;;;;5013742;28;20112;-73
2022/09/08 09:53:18;;;;;;;2.30;1.23;;;16.50;99.90;;;;;;5017170;28;20041;-74
2022/09/08 09:55:58;;;;;;;3.00;1.40;;;16.50;99.90;;;;;;5017700;28;20081;-74
2022/09/08 09:58:33;;;;;;;2.35;1.30;;;16.60;99.90;;;;;;5032684;28;20065;-74
2022/09/08 10:01:34;;;;;;;2.83;1.48;;;16.60;99.90;;;;;;5014098;28;20127;-74
2022/09/08 10:04:30;;;;;;;2.90;1.88;;;16.60;99.90;;;;;;5011370;28;20471;-73
2022/09/08 10:07:17;;;;;;;3.72;1.65;;;16.60;99.90;;;;;;5013267;28;20375;-73
2022/09/08 10:10:11;;;;;;;3.92;2.00;;;16.60;99.90;;;;;;5022487;28;20125;-73
2022/09/08 10:12:58;;;;;;;3.00;1.70;;;16.60;99.90;;;;;;5020577;28;20279;-74
2022/09/08 10:15:54;;;;;;;3.58;2.08;;;16.60;99.90;;;;;;5023499;28;20128;-73
2022/09/08 10:19:17;;;;;;;3.10;1.92;;;16.70;99.90;;;;;;5020908;28;20266;-74
2022/09/08 10:22:01;;;;;;;3.17;2.05;;;16.70;99.90;;;;;;4939115;28;20797;-73
2022/09/08 10:25:02;;;;;;;3.10;1.67;;;16.70;99.90;;;;;;4968251;28;20051;-73
2022/09/08 10:27:49;;;;;;;3.20;2.13;;;16.70;99.90;;;;;;4945941;28;20054;-73
2022/09/08 10:30:20;;;;;;;4.07;2.30;;;16.80;99.90;;;;;;5020920;28;20056;-73
2022/09/08 10:33:17;;;;;;;4.15;2.05;;;16.90;99.90;;;;;;5027857;28;20071;-74
2022/09/08 10:35:47;;;;;;;3.78;2.20;;;16.80;99.90;;;;;;5020031;28;20166;-73
2022/09/08 10:38:19;;;;;;;4.93;2.10;;;16.90;99.90;;;;;;5024870;28;20414;-74
2022/09/08 10:41:06;;;;;;;4.75;1.90;;;16.90;99.90;;;;;;5014689;28;20033;-74
2022/09/08 10:43:38;;;;;;;3.10;1.40;;;16.90;99.90;;;;;;5029994;28;20037;-73
2022/09/08 10:46:22;;;;;;;2.95;1.52;;;16.90;99.90;;;;;;5027968;28;20534;-73
2022/09/08 10:49:02;;;;;;;3.58;1.60;;;16.90;99.90;;;;;;5024228;28;20044;-73
2022/09/08 10:51:36;;;;;;;5.00;1.65;;;16.90;99.90;;;;;;5009278;28;20042;-73
2022/09/08 10:54:14;;;;;;;3.92;1.52;;;16.90;99.90;;;;;;5030068;28;20104;-73
2022/09/08 10:56:42;;;;;;;1.88;1.00;;;17.00;99.90;;;;;;5030908;28;20266;-73
2022/09/08 10:59:43;;;;;;;3.30;1.25;;;17.00;99.90;;;;;;5024960;28;20090;-73
2022/09/08 11:02:16;;;;;;;3.38;1.42;;;17.00;99.90;;;;;;5034172;28;20064;-74
2022/09/08 11:05:20;;;;;;;1.90;1.17;;;17.00;99.90;;;;;;5020748;28;20045;-74
2022/09/08 11:07:54;;;;;;;2.10;1.20;;;17.00;99.90;;;;;;5018057;28;20080;-73
2022/09/08 11:10:42;;;;;;;2.92;1.27;;;17.00;99.90;;;;;;5021069;28;20130;-74
2022/09/08 11:13:29;;;;;;;4.00;1.20;;;17.10;99.90;;;;;;5019431;28;20046;-73
2022/09/08 11:16:16;;;;;;;3.00;1.50;;;17.10;99.90;;;;;;5023323;28;20123;-73
2022/09/08 11:19:20;;;;;;;2.83;1.33;;;17.10;99.90;;;;;;5025590;28;20250;-73
2022/09/08 11:22:20;;;;;;;2.70;1.50;;;17.10;99.90;;;;;;5035555;28;20116;-73
2022/09/08 11:25:13;;;;;;;4.00;1.88;;;17.10;99.90;;;;;;4986465;28;20499;-73
2022/09/08 11:27:50;;;;;;;5.88;1.80;;;17.20;99.90;;;;;;5021161;28;20041;-73
2022/09/08 11:30:32;;;;;;;3.28;1.52;;;17.20;99.90;;;;;;5025483;28;20128;-73
2022/09/08 11:33:09;;;;;;;2.95;1.50;;;17.20;99.90;;;;;;5025782;28;20049;-73
2022/09/08 11:36:14;;;;;;;3.58;1.95;;;17.30;99.90;;;;;;5024576;28;20037;-73
2022/09/08 11:39:04;;;;;;;3.53;1.45;;;17.30;99.90;;;;;;5029671;28;20479;-73
2022/09/08 11:42:04;;;;;;;6.03;2.13;;;17.30;99.90;;;;;;5018860;28;20045;-73
2022/09/08 11:44:47;;;;;;;4.03;1.60;;;17.30;99.90;;;;;;5022239;28;20349;-74
2022/09/08 11:47:52;;;;;;;4.03;1.77;;;17.30;99.90;;;;;;5021042;28;20087;-73
2022/09/08 11:50:20;;;;;;;3.28;1.65;;;17.30;99.90;;;;;;5018005;28;20037;-73
2022/09/08 11:53:15;;;;;;;3.22;2.13;;;17.30;99.90;;;;;;5024077;28;20045;-73
2022/09/08 11:56:02;;;;;;;4.10;1.73;;;17.30;99.90;;;;;;5009690;28;20064;-73
2022/09/08 11:58:46;;;;;;;2.80;1.73;;;17.40;99.90;;;;;;5022678;28;20049;-72
2022/09/08 12:01:24;;;;;;;4.28;1.98;;;17.40;99.90;;;;;;5033094;28;20048;-73
2022/09/08 12:03:56;;;;;;;5.20;2.47;;;17.40;99.90;;;;;;5028095;28;20037;-73
2022/09/08 12:06:38;;;;;;;5.40;1.85;;;17.40;99.90;;;;;;5029788;28;20060;-73
2022/09/08 12:09:25;;;;;;;4.30;2.13;;;17.40;99.90;;;;;;5021007;28;20072;-73
2022/09/08 12:11:56;;;;;;;5.40;2.60;;;17.40;99.90;;;;;;5026768;28;20438;-73
2022/09/08 12:14:37;;;;;;;6.97;1.88;;;17.40;99.90;;;;;;5028311;28;20124;-72
2022/09/08 12:17:36;;;;;;;5.43;2.63;;;17.40;99.90;;;;;;5012487;28;20538;-73
2022/09/08 12:20:22;;;;;;;4.32;1.85;;;17.40;99.90;;;;;;5016787;28;20060;-73
2022/09/08 12:22:53;;;;;;;3.15;2.10;;;17.40;99.90;;;;;;5032500;28;20081;-72
2022/09/08 12:25:42;;;;;;;4.10;2.15;;;17.50;99.90;;;;;;5028220;28;20045;-72
2022/09/08 12:28:46;;;;;;;5.28;2.47;;;17.50;99.90;;;;;;5028220;28;20040;-72
2022/09/08 12:31:20;;;;;;;4.72;2.65;;;17.60;99.90;;;;;;4994295;28;20037;-72
2022/09/08 12:34:05;;;;;;;6.35;2.92;;;17.60;99.90;;;;;;5028890;28;20072;-72
2022/09/08 12:36:43;;;;;;;6.05;3.13;;;17.60;99.90;;;;;;5005320;28;20041;-72
2022/09/08 12:39:33;;;;;;;4.90;2.88;;;17.60;99.90;;;;;;5026148;28;20075;-72
2022/09/08 12:42:07;;;;;;;6.45;2.88;;;17.70;99.90;;;;;;5027939;28;20482;-72
2022/09/08 12:45:00;;;;;;;4.72;2.80;;;17.70;99.90;;;;;;5025963;28;20049;-72
2022/09/08 12:47:48;;;;;;;6.00;3.45;;;17.80;99.90;;;;;;5025859;28;20054;-72
2022/09/08 12:50:49;;;;;;;5.03;3.08;;;17.80;99.90;;;;;;5020476;28;20508;-72
2022/09/08 12:54:18;;;;;;;6.03;3.15;;;17.80;99.90;;;;;;4948811;28;20106;-72
2022/09/08 12:57:02;;;;;;;6.05;3.38;;;17.90;99.90;;;;;;4975418;28;20073;-72
2022/09/08 13:00:06;;;;;;;5.30;3.47;;;17.80;99.90;;;;;;5026585;28;20398;-72
2022/09/08 13:02:53;;;;;;;6.40;3.67;;;17.90;99.90;;;;;;5029956;28;20049;-72
2022/09/08 13:05:39;;;;;;;5.47;3.42;;;17.90;99.90;;;;;;5025351;28;20038;-72
2022/09/08 13:08:35;;;;;;;4.85;3.38;;;18.00;99.90;;;;;;5026167;28;20061;-72
2022/09/08 13:11:12;;;;;;;4.85;3.28;;;18.00;99.90;;;;;;5024763;28;20052;-73
2022/09/08 13:13:45;;;;;;;6.10;3.90;;;18.10;99.90;;;;;;5018492;28;20521;-72
2022/09/08 13:16:16;;;;;;;6.38;3.65;;;18.10;99.90;;;;;;5032306;28;20204;-72
2022/09/08 13:19:02;;;;;;;6.97;4.20;;;18.10;99.90;;;;;;5031078;28;20037;-72
2022/09/08 13:21:34;;;;;;;7.00;4.20;;;18.10;99.90;;;;;;5025556;28;20033;-72
2022/09/08 13:24:14;;;;;;;5.78;4.13;;;18.20;99.90;;;;;;5003173;28;20139;-72
2022/09/08 13:27:07;;;;;;;11.77;4.13;;;18.30;99.90;;;;;;5044895;28;20145;-72
2022/09/08 13:30:08;;;;;;;6.10;4.30;;;18.30;99.90;;;;;;5020493;28;20041;-72
2022/09/08 13:32:34;;;;;;;7.32;4.40;;;18.40;99.90;;;;;;5024331;28;20111;-72